Time;durP1;ratioP1;P1;durP2;ratioP2;P2;SDS_P1;SDS_P2;PMS_P1;PMS_P2;Temp;Humidity;BMP_temperature;BMP_pressure;BME280_temperature;BME280_humidity;BME280_pressure;Samples;Min_cycle;Max_cycle;Signal;HPM_P1;HPM_P2
2021/12/08 00:02:05;;;;;;;12.30;9.50;;;;;;;0.43;89.26;96402.38;108092;1273;59701;-67
2021/12/08 00:04:34;;;;;;;11.40;9.10;;;;;;;0.36;89.29;96403.41;107975;1275;72076;-71
2021/12/08 00:07:05;;;;;;;13.40;9.50;;;;;;;0.35;89.46;96408.64;108106;1275;68607;-70
2021/12/08 00:15:12;;;;;;;12.10;9.30;;;;;;;0.23;89.68;96408.82;108086;1275;59770;-72
2021/12/08 00:17:41;;;;;;;8.00;6.50;;;;;;;0.26;89.85;96413.84;108095;1275;71292;-73
2021/12/08 00:20:11;;;;;;;10.30;7.60;;;;;;;0.33;89.66;96426.23;108098;1275;67912;-71
2021/12/08 00:22:40;;;;;;;12.10;9.30;;;;;;;0.39;89.35;96431.20;108040;1275;68861;-72
2021/12/08 00:25:09;;;;;;;10.90;9.50;;;;;;;0.35;89.11;96428.15;108146;1274;59989;-69
2021/12/08 00:27:38;;;;;;;11.30;8.90;;;;;;;0.33;89.26;96422.94;107874;1276;59665;-72
2021/12/08 00:30:08;;;;;;;6.90;5.50;;;;;;;0.35;89.41;96431.09;108147;1274;70494;-71
2021/12/08 00:32:39;;;;;;;9.70;7.30;;;;;;;0.38;89.25;96432.80;108171;1274;67812;-76
2021/12/08 00:35:10;;;;;;;12.80;9.70;;;;;;;0.37;89.08;96427.88;108058;1273;69225;-77
2021/12/08 00:37:40;;;;;;;11.40;9.10;;;;;;;0.35;88.86;96429.90;108012;1275;59750;-70
2021/12/08 00:40:13;;;;;;;10.40;7.70;;;;;;;0.36;88.99;96432.19;108086;1275;59781;-68
2021/12/08 00:42:44;;;;;;;7.30;6.20;;;;;;;0.36;88.85;96433.59;107534;1274;598730;-76
2021/12/08 00:45:17;;;;;;;6.90;5.50;;;;;;;0.37;88.99;96432.51;107822;1276;68182;-77
2021/12/08 00:47:47;;;;;;;9.30;6.80;;;;;;;0.40;88.92;96433.55;107996;1275;69461;-69
2021/12/08 00:50:21;;;;;;;12.40;9.80;;;;;;;0.41;88.77;96433.17;108076;1271;59791;-73
2021/12/08 00:52:51;;;;;;;15.80;10.10;;;;;;;0.38;88.69;96439.65;108244;1271;59725;-74
2021/12/08 00:55:21;;;;;;;12.90;8.40;;;;;;;0.35;88.43;96434.51;108164;1272;71464;-76
2021/12/08 00:57:53;;;;;;;8.70;7.00;;;;;;;0.31;88.44;96429.20;108159;1274;68826;-68
2021/12/08 01:00:30;;;;;;;10.00;7.90;;;;;;;0.32;88.58;96440.99;108139;1270;67791;-70
2021/12/08 01:03:01;;;;;;;10.90;7.30;;;;;;;0.31;88.59;96439.98;108136;1272;59744;-74
2021/12/08 01:05:36;;;;;;;9.90;6.90;;;;;;;0.33;88.65;96434.23;108178;1272;59754;-75
2021/12/08 01:08:07;;;;;;;9.00;6.40;;;;;;;0.36;88.63;96431.53;108158;1274;71576;-70
2021/12/08 01:10:38;;;;;;;9.60;7.00;;;;;;;0.38;88.54;96437.25;108168;1272;68544;-77
2021/12/08 01:13:11;;;;;;;6.50;5.10;;;;;;;0.39;88.45;96435.31;108068;1272;69314;-78
2021/12/08 01:15:44;;;;;;;6.50;4.90;;;;;;;0.41;88.39;96430.43;108079;1272;60609;-68
2021/12/08 01:18:16;;;;;;;7.80;6.30;;;;;;;0.42;88.41;96431.94;108070;1275;59665;-72
2021/12/08 01:20:47;;;;;;;11.50;8.90;;;;;;;0.41;88.22;96429.54;108016;1275;70957;-70
2021/12/08 01:23:19;;;;;;;9.50;7.80;;;;;;;0.40;88.07;96427.40;108131;1275;67917;-72
2021/12/08 01:25:48;;;;;;;10.60;9.00;;;;;;;0.40;88.14;96430.15;108137;1274;69412;-72
2021/12/08 01:28:20;;;;;;;11.60;9.30;;;;;;;0.39;88.17;96432.40;108073;1275;59755;-70
2021/12/08 01:30:52;;;;;;;10.60;8.30;;;;;;;0.37;88.02;96431.52;108155;1275;59769;-67
2021/12/08 01:33:24;;;;;;;9.80;8.20;;;;;;;0.34;87.89;96435.09;108044;1275;71561;-68
2021/12/08 01:35:53;;;;;;;11.50;9.20;;;;;;;0.31;88.12;96442.74;108125;1272;67750;-67
2021/12/08 01:38:25;;;;;;;10.70;8.50;;;;;;;0.29;88.31;96441.98;108081;1275;69459;-75
2021/12/08 01:40:54;;;;;;;10.70;8.60;;;;;;;0.24;88.20;96443.73;107909;1276;59761;-67
2021/12/08 01:43:40;;;;;;;10.80;9.30;;;;;;;0.23;88.29;96440.36;108081;1274;59792;-73
2021/12/08 01:46:13;;;;;;;10.90;9.50;;;;;;;0.21;88.27;96442.52;107959;1274;70782;-76
2021/12/08 01:48:45;;;;;;;9.80;7.70;;;;;;;0.19;88.45;96438.86;108100;1274;67740;-76
2021/12/08 01:51:17;;;;;;;12.00;9.20;;;;;;;0.16;88.48;96437.27;108142;1275;69304;-74
2021/12/08 01:53:50;;;;;;;13.00;9.90;;;;;;;0.14;88.54;96438.94;108040;1275;59764;-76
2021/12/08 01:56:22;;;;;;;13.40;10.10;;;;;;;0.11;88.74;96437.00;108040;1275;59696;-75
2021/12/08 01:58:52;;;;;;;13.80;10.20;;;;;;;0.09;88.81;96440.70;108161;1275;71404;-75
2021/12/08 02:01:26;;;;;;;12.70;10.50;;;;;;;0.07;88.87;96442.67;108044;1275;67640;-75
2021/12/08 02:03:56;;;;;;;13.10;10.20;;;;;;;0.07;88.94;96442.67;108144;1275;69309;-72
2021/12/08 02:06:26;;;;;;;11.00;9.40;;;;;;;0.07;89.03;96443.73;108085;1274;59716;-72
2021/12/08 02:08:56;;;;;;;12.40;9.50;;;;;;;0.07;88.99;96445.96;107933;1272;60126;-75
2021/12/08 02:11:26;;;;;;;11.20;9.00;;;;;;;0.06;89.00;96450.11;108169;1272;71613;-72
2021/12/08 02:14:00;;;;;;;;;;;;;;;0.05;88.93;96449.62;107884;1275;68729;-75
2021/12/08 02:16:31;;;;;;;10.00;8.60;;;;;;;0.02;89.01;96448.40;108113;1271;69420;-75
2021/12/08 02:19:01;;;;;;;10.40;8.50;;;;;;;0.01;89.14;96449.81;107945;1275;59747;-76
2021/12/08 02:21:38;;;;;;;11.80;8.60;;;;;;;-0.00;89.25;96448.48;108075;1275;59789;-74
2021/12/08 02:24:13;;;;;;;11.50;9.20;;;;;;;-0.03;89.22;96445.86;107954;1275;70611;-76
2021/12/08 02:26:45;;;;;;;11.30;9.00;;;;;;;0.00;89.43;96448.45;108027;1273;67391;-76
2021/12/08 02:29:23;;;;;;;12.30;9.50;;;;;;;-0.00;89.32;96439.41;108020;1272;68901;-75
2021/12/08 02:32:02;;;;;;;9.30;7.30;;;;;;;-0.02;89.25;96443.42;108054;1272;59809;-78
2021/12/08 02:48:31;;;;;;;9.50;7.70;;;;;;;0.03;89.09;96441.31;108026;1272;59744;-68
2021/12/08 02:51:01;;;;;;;10.40;8.20;;;;;;;0.02;88.98;96440.69;108096;1273;70820;-69
2021/12/08 02:53:33;;;;;;;12.10;9.30;;;;;;;-0.02;89.03;96446.52;108113;1273;67937;-73
2021/12/08 02:56:03;;;;;;;11.60;9.10;;;;;;;-0.05;89.10;96445.96;108109;1275;69122;-68
2021/12/08 02:58:32;;;;;;;11.20;8.60;;;;;;;-0.10;89.39;96449.11;108085;1272;59767;-68
2021/12/08 03:01:04;;;;;;;13.00;9.80;;;;;;;-0.14;89.44;96447.08;107945;1272;59716;-72
2021/12/08 03:03:35;;;;;;;12.90;10.10;;;;;;;-0.18;89.77;96448.63;108013;1275;71680;-72
2021/12/08 03:06:05;;;;;;;11.10;9.00;;;;;;;-0.22;89.90;96447.29;108069;1272;68477;-70
2021/12/08 03:08:34;;;;;;;13.00;10.00;;;;;;;-0.27;90.09;96449.36;108068;1272;69523;-76
2021/12/08 03:11:04;;;;;;;15.60;10.70;;;;;;;-0.32;90.39;96445.30;107920;1275;59772;-67
2021/12/08 03:13:35;;;;;;;18.70;13.00;;;;;;;-0.35;90.64;96444.43;107996;1275;59698;-67
2021/12/08 03:16:07;;;;;;;18.20;12.70;;;;;;;-0.39;90.85;96448.69;108080;1275;71576;-71
2021/12/08 03:18:40;;;;;;;35.60;13.00;;;;;;;-0.39;90.97;96453.49;108095;1272;67674;-75
2021/12/08 03:21:10;;;;;;;18.70;11.80;;;;;;;-0.41;90.99;96459.91;107918;1276;68468;-70
2021/12/08 03:23:49;;;;;;;17.40;11.70;;;;;;;-0.42;91.22;96472.27;107828;1275;59696;-67
2021/12/08 03:26:26;;;;;;;41.90;13.30;;;;;;;-0.42;91.33;96474.88;107999;1272;59726;-68
2021/12/08 03:29:18;;;;;;;14.10;9.70;;;;;;;-0.43;91.50;96480.20;107977;1273;71645;-70
2021/12/08 03:31:49;;;;;;;11.20;8.80;;;;;;;-0.41;91.46;96481.18;108197;1275;68792;-68
2021/12/08 03:34:23;;;;;;;16.00;10.30;;;;;;;-0.37;91.38;96482.34;107948;1272;68440;-72
2021/12/08 03:36:52;;;;;;;13.20;9.30;;;;;;;-0.39;91.31;96481.39;108065;1272;59773;-73
2021/12/08 03:39:23;;;;;;;10.60;8.20;;;;;;;-0.36;91.22;96484.00;108193;1272;59659;-70
2021/12/08 03:41:53;;;;;;;;;;;;;;;-0.34;91.09;96486.67;108182;1275;70785;-71
2021/12/08 03:44:23;;;;;;;22.50;12.90;;;;;;;-0.37;91.12;96491.09;108093;1271;67866;-76
2021/12/08 03:47:00;;;;;;;19.50;12.90;;;;;;;-0.41;91.31;96491.61;108111;1275;68683;-77
2021/12/08 03:49:30;;;;;;;18.20;12.20;;;;;;;-0.41;91.41;96494.17;108031;1274;59699;-77
2021/12/08 03:52:03;;;;;;;22.40;13.80;;;;;;;-0.41;91.45;96497.24;107972;1275;59737;-77
2021/12/08 03:54:33;;;;;;;20.90;14.30;;;;;;;-0.42;91.41;96498.48;108181;1272;70840;-76
2021/12/08 03:57:03;;;;;;;20.40;13.90;;;;;;;-0.44;91.52;96497.91;107856;1274;67756;-77
2021/12/08 03:59:33;;;;;;;19.60;13.30;;;;;;;-0.47;91.67;96500.41;108049;1272;69488;-70
2021/12/08 04:02:04;;;;;;;20.10;14.10;;;;;;;-0.47;91.76;96499.70;108026;1272;59779;-71
2021/12/08 04:04:43;;;;;;;20.50;12.80;;;;;;;-0.48;91.83;96504.38;107957;1276;59718;-69
2021/12/08 04:07:15;;;;;;;21.80;13.60;;;;;;;-0.47;91.81;96506.38;107892;1275;70583;-69
2021/12/08 04:09:47;;;;;;;24.20;14.80;;;;;;;-0.45;91.79;96507.52;108025;1272;68597;-70
2021/12/08 04:12:20;;;;;;;24.50;15.50;;;;;;;-0.47;91.92;96509.98;108023;1272;69654;-69
2021/12/08 04:15:08;;;;;;;21.50;14.40;;;;;;;-0.46;91.82;96509.96;108071;1275;59784;-76
2021/12/08 04:17:46;;;;;;;28.60;15.70;;;;;;;-0.48;92.00;96511.23;107871;1275;59685;-68
2021/12/08 04:20:21;;;;;;;26.70;15.50;;;;;;;-0.49;91.92;96513.71;107935;1275;70851;-75
2021/12/08 04:22:53;;;;;;;27.40;15.50;;;;;;;-0.50;91.93;96514.41;108015;1275;68138;-76
2021/12/08 04:25:27;;;;;;;33.00;15.80;;;;;;;-0.51;91.98;96509.98;108134;1272;69519;-73
2021/12/08 04:28:00;;;;;;;14.50;9.70;;;;;;;-0.48;91.96;96513.15;107919;1275;59757;-73
2021/12/08 04:30:42;;;;;;;25.20;14.60;;;;;;;-0.45;91.66;96512.83;108013;1269;59744;-75
2021/12/08 04:33:12;;;;;;;17.40;11.90;;;;;;;-0.43;91.64;96513.07;108078;1273;71560;-75
2021/12/08 04:35:47;;;;;;;26.00;15.40;;;;;;;-0.41;91.58;96509.25;108114;1272;69252;-74
2021/12/08 04:38:25;;;;;;;27.10;16.00;;;;;;;-0.40;91.73;96508.82;107921;1275;69482;-77
2021/12/08 04:41:04;;;;;;;26.60;14.80;;;;;;;-0.39;91.52;96514.11;107943;1275;59722;-74
2021/12/08 04:43:49;;;;;;;35.40;17.00;;;;;;;-0.40;91.61;96513.66;108090;1272;59727;-76
2021/12/08 04:46:41;;;;;;;31.10;16.20;;;;;;;-0.42;91.68;96514.91;108081;1272;71480;-75
2021/12/08 04:49:50;;;;;;;29.60;15.60;;;;;;;-0.41;91.58;96516.09;108077;1274;66822;-73
2021/12/08 05:06:44;;;;;;;23.70;13.80;;;;;;;-0.35;91.53;96538.75;108064;1274;68667;-75
2021/12/08 05:09:27;;;;;;;22.60;13.50;;;;;;;-0.35;91.53;96540.11;107948;1272;59732;-75
2021/12/08 05:12:03;;;;;;;21.40;13.90;;;;;;;-0.34;91.62;96537.52;108088;1272;59665;-76
2021/12/08 05:14:43;;;;;;;22.00;14.00;;;;;;;-0.33;91.62;96541.58;108071;1273;71580;-74
2021/12/08 05:17:38;;;;;;;21.50;14.10;;;;;;;-0.33;91.52;96543.80;107960;1272;67879;-77
2021/12/08 05:20:14;;;;;;;21.90;13.30;;;;;;;-0.32;91.46;96544.95;108043;1273;68817;-75
2021/12/08 05:22:55;;;;;;;20.80;13.60;;;;;;;-0.32;91.47;96542.92;108019;1274;59719;-71
2021/12/08 05:25:28;;;;;;;23.90;15.20;;;;;;;-0.32;91.55;96547.34;107992;1275;59741;-75
2021/12/08 05:28:02;;;;;;;21.20;13.60;;;;;;;-0.31;91.54;96548.54;108120;1272;70779;-76
2021/12/08 05:30:40;;;;;;;28.40;16.70;;;;;;;-0.32;91.61;96551.45;107914;1275;68668;-76
2021/12/08 05:33:11;;;;;;;24.60;15.80;;;;;;;-0.33;91.70;96551.51;107927;1275;68618;-76
2021/12/08 05:35:40;;;;;;;;;;;;;;;-0.32;91.78;96551.46;107998;1273;59770;-73
2021/12/08 05:38:09;;;;;;;25.60;15.20;;;;;;;-0.31;91.83;96553.63;108054;1272;59726;-76
2021/12/08 05:40:52;;;;;;;24.20;15.00;;;;;;;-0.30;91.70;96554.80;108011;1272;71603;-76
2021/12/08 05:43:22;;;;;;;22.80;14.90;;;;;;;-0.27;91.56;96558.76;108045;1272;68639;-74
2021/12/08 05:45:54;;;;;;;29.70;17.00;;;;;;;-0.26;91.57;96557.70;108140;1272;69519;-66
2021/12/08 05:48:24;;;;;;;30.10;16.60;;;;;;;-0.26;91.59;96560.43;108092;1272;59778;-74
2021/12/08 05:51:05;;;;;;;29.00;16.70;;;;;;;-0.27;91.63;96558.62;108142;1272;59652;-69
2021/12/08 05:53:36;;;;;;;20.10;13.70;;;;;;;-0.25;91.62;96560.04;108121;1272;70810;-67
2021/12/08 05:56:07;;;;;;;25.50;15.90;;;;;;;-0.23;91.56;96557.09;108110;1270;68114;-66
2021/12/08 05:58:38;;;;;;;35.50;21.50;;;;;;;-0.24;91.59;96557.98;108073;1272;69542;-75
2021/12/08 06:01:17;;;;;;;26.60;16.30;;;;;;;-0.25;91.59;96559.18;108087;1271;59639;-68
2021/12/08 06:03:49;;;;;;;25.40;16.10;;;;;;;-0.23;91.71;96557.92;108101;1272;59705;-75
2021/12/08 06:06:21;;;;;;;28.10;17.60;;;;;;;-0.20;91.78;96563.59;108155;1270;71097;-68
2021/12/08 06:08:51;;;;;;;31.00;18.50;;;;;;;-0.20;91.66;96567.88;108186;1272;67820;-75
2021/12/08 06:11:28;;;;;;;28.10;18.60;;;;;;;-0.20;91.61;96566.17;108044;1275;68646;-74
2021/12/08 06:13:59;;;;;;;26.20;17.30;;;;;;;-0.19;91.67;96561.86;107977;1272;59748;-74
2021/12/08 06:16:32;;;;;;;19.80;12.00;;;;;;;-0.16;91.67;96560.20;108191;1272;59779;-75
2021/12/08 06:19:01;;;;;;;22.00;14.00;;;;;;;-0.12;91.66;96566.85;108221;1272;71641;-74
2021/12/08 06:21:31;;;;;;;27.00;15.90;;;;;;;-0.09;91.52;96572.88;108170;1274;67861;-75
2021/12/08 06:24:03;;;;;;;25.60;16.60;;;;;;;-0.08;91.32;96575.61;108066;1272;69456;-71
2021/12/08 06:26:33;;;;;;;23.70;15.50;;;;;;;-0.08;91.14;96572.53;108125;1273;59847;-73
2021/12/08 06:29:05;;;;;;;24.10;15.60;;;;;;;-0.08;91.11;96575.75;108138;1273;59706;-73
2021/12/08 06:31:37;;;;;;;25.50;16.40;;;;;;;-0.05;91.09;96577.85;108169;1272;72270;-70
2021/12/08 06:34:08;;;;;;;23.60;15.60;;;;;;;-0.05;90.98;96583.48;108212;1273;68515;-74
2021/12/08 06:36:53;;;;;;;25.10;16.70;;;;;;;-0.04;91.08;96586.39;108171;1273;69421;-69
2021/12/08 06:39:35;;;;;;;30.30;17.40;;;;;;;-0.03;91.11;96590.94;108146;1271;59706;-75
2021/12/08 06:42:14;;;;;;;23.70;15.40;;;;;;;-0.03;91.14;96596.61;108094;1272;59713;-70
2021/12/08 06:44:47;;;;;;;23.50;15.20;;;;;;;-0.02;91.20;96595.36;108039;1272;72210;-70
2021/12/08 06:47:22;;;;;;;28.30;16.70;;;;;;;0.00;91.26;96599.92;108103;1271;68725;-74
2021/12/08 06:49:54;;;;;;;24.10;15.50;;;;;;;-0.01;91.30;96599.27;108099;1272;69498;-68
2021/12/08 06:52:31;;;;;;;36.90;20.40;;;;;;;0.00;91.25;96601.80;108045;1272;59734;-66
2021/12/08 06:55:07;;;;;;;26.30;16.60;;;;;;;-0.06;91.43;96598.44;108129;1272;59777;-69
2021/12/08 06:57:42;;;;;;;26.60;16.70;;;;;;;-0.04;91.42;96595.13;108124;1272;70700;-74
2021/12/08 07:00:36;;;;;;;18.60;11.80;;;;;;;-0.02;91.40;96598.80;108142;1273;68633;-67
2021/12/08 07:03:29;;;;;;;20.20;13.00;;;;;;;0.05;91.31;96603.82;108146;1272;69696;-67
2021/12/08 07:06:59;;;;;;;19.80;12.40;;;;;;;0.10;91.07;96613.36;108126;1272;59763;-70
2021/12/08 07:08:53;;;;;;;25.00;16.70;;;;;;;0.12;90.96;96610.71;107954;1272;59730;-76
2021/12/08 07:11:23;;;;;;;23.00;15.10;;;;;;;0.14;90.93;96608.89;108156;1272;70808;-76
2021/12/08 07:13:55;;;;;;;37.50;20.20;;;;;;;0.16;90.85;96611.73;108015;1274;67669;-70
2021/12/08 07:16:32;;;;;;;23.90;16.80;;;;;;;0.15;90.80;96617.92;108038;1272;68434;-74
2021/12/08 07:19:13;;;;;;;31.90;20.20;;;;;;;0.17;90.88;96623.15;108069;1272;59773;-67
2021/12/08 07:21:44;;;;;;;;;;;;;;;0.18;90.94;96622.56;108110;1274;59665;-68
2021/12/08 07:24:28;;;;;;;16.40;11.00;;;;;;;0.20;90.96;96622.19;108137;1271;72823;-68
2021/12/08 07:27:06;;;;;;;23.30;13.10;;;;;;;0.25;90.86;96622.97;107998;1272;67841;-73
2021/12/08 07:29:39;;;;;;;15.80;10.70;;;;;;;0.31;90.76;96626.13;108123;1272;69412;-70
2021/12/08 07:32:15;;;;;;;15.40;11.30;;;;;;;0.37;90.65;96628.77;108037;1272;59802;-75
2021/12/08 07:34:44;;;;;;;18.20;12.30;;;;;;;0.42;90.44;96634.55;107988;1272;59681;-67
2021/12/08 07:37:20;;;;;;;20.70;12.70;;;;;;;0.46;90.21;96633.52;108061;1272;71088;-73
2021/12/08 07:40:12;;;;;;;16.60;11.90;;;;;;;0.47;89.89;96632.95;108051;1272;69229;-74
2021/12/08 07:42:47;;;;;;;16.50;10.70;;;;;;;0.50;89.82;96632.98;108042;1272;68849;-73
2021/12/08 07:45:25;;;;;;;17.50;11.10;;;;;;;0.52;89.65;96636.20;108138;1272;59723;-67
2021/12/08 07:47:54;;;;;;;12.90;9.50;;;;;;;0.53;89.59;96637.65;107822;1277;59665;-67
2021/12/08 07:50:37;;;;;;;15.20;10.70;;;;;;;0.56;89.55;96641.98;108109;1272;70565;-70
2021/12/08 07:53:09;;;;;;;10.80;7.50;;;;;;;0.61;89.60;96643.33;107963;1274;66700;-74
2021/12/08 07:55:44;;;;;;;16.60;10.80;;;;;;;0.64;89.63;96644.04;108120;1272;68762;-73
2021/12/08 07:58:17;;;;;;;13.20;9.80;;;;;;;0.67;89.47;96646.30;108160;1272;59699;-75
2021/12/08 08:00:57;;;;;;;16.10;10.80;;;;;;;0.68;89.14;96648.80;107999;1275;59751;-73
2021/12/08 08:03:30;;;;;;;14.50;10.00;;;;;;;0.70;89.24;96651.66;108119;1272;72196;-73
2021/12/08 08:06:05;;;;;;;14.70;8.90;;;;;;;0.73;89.24;96651.35;108151;1273;67911;-71
2021/12/08 08:08:36;;;;;;;13.00;10.00;;;;;;;0.75;89.22;96650.36;108138;1272;68608;-75
2021/12/08 08:11:11;;;;;;;14.40;9.90;;;;;;;0.80;89.21;96648.62;107958;1273;59686;-75
2021/12/08 08:13:40;;;;;;;15.60;11.00;;;;;;;0.83;89.27;96645.71;108068;1272;59722;-68
2021/12/08 08:16:15;;;;;;;12.50;8.60;;;;;;;0.88;89.45;96643.59;108057;1272;71603;-75
2021/12/08 08:18:52;;;;;;;13.20;8.70;;;;;;;0.94;89.39;96641.94;108109;1272;67835;-73
2021/12/08 08:21:26;;;;;;;15.80;11.10;;;;;;;0.99;89.15;96639.13;107962;1272;69500;-70
2021/12/08 08:24:00;;;;;;;19.60;14.40;;;;;;;1.02;88.80;96640.90;108076;1272;59719;-74
2021/12/08 08:26:32;;;;;;;19.80;14.80;;;;;;;1.01;87.92;96640.22;108177;1273;59681;-74
2021/12/08 08:29:02;;;;;;;21.20;14.10;;;;;;;1.02;87.80;96638.64;108143;1272;72117;-75
2021/12/08 08:31:40;;;;;;;;;;;;;;;1.03;87.71;96639.50;108014;1272;68687;-74
2021/12/08 08:34:10;;;;;;;19.40;12.20;;;;;;;1.05;87.92;96639.56;108112;1270;67891;-72
2021/12/08 08:36:45;;;;;;;17.20;11.20;;;;;;;1.05;87.77;96638.21;107992;1272;59786;-75
2021/12/08 08:39:23;;;;;;;22.20;15.10;;;;;;;1.03;87.86;96641.36;108032;1272;59785;-73
2021/12/08 08:41:59;;;;;;;19.40;12.00;;;;;;;0.99;87.52;96642.73;107533;1273;786700;-77
2021/12/08 08:44:38;;;;;;;18.60;13.40;;;;;;;1.00;87.99;96650.77;107951;1272;67723;-77
2021/12/08 08:47:23;;;;;;;20.60;15.10;;;;;;;1.03;88.08;96650.13;108018;1272;69886;-76
2021/12/08 08:49:53;;;;;;;24.80;16.90;;;;;;;0.98;87.54;96647.77;107966;1272;59748;-74
2021/12/08 08:52:25;;;;;;;23.90;15.60;;;;;;;0.98;88.03;96640.71;108071;1272;59725;-69
2021/12/08 08:54:58;;;;;;;24.50;15.10;;;;;;;1.00;87.94;96639.77;108002;1272;70867;-68
2021/12/08 08:57:36;;;;;;;23.50;16.90;;;;;;;0.99;87.98;96638.61;108108;1271;68704;-68
2021/12/08 09:00:21;;;;;;;23.80;15.90;;;;;;;0.97;88.32;96637.49;107855;1275;68654;-73
2021/12/08 09:02:52;;;;;;;23.30;15.40;;;;;;;0.98;87.89;96638.52;108127;1272;59773;-72
2021/12/08 09:05:27;;;;;;;16.70;12.10;;;;;;;1.01;87.93;96631.33;108078;1271;59752;-67
2021/12/08 09:08:15;;;;;;;16.40;11.50;;;;;;;1.12;88.02;96628.06;108066;1271;71594;-71
2021/12/08 09:10:57;;;;;;;14.80;11.10;;;;;;;1.25;88.12;96626.91;107975;1272;67944;-67
2021/12/08 09:13:45;;;;;;;17.00;12.80;;;;;;;1.40;88.10;96623.62;107958;1273;67634;-71
2021/12/08 09:16:19;;;;;;;29.60;19.50;;;;;;;1.55;87.92;96617.58;108039;1271;59748;-73
2021/12/08 09:19:02;;;;;;;20.60;14.60;;;;;;;1.65;86.73;96610.20;108109;1272;59691;-71
2021/12/08 09:21:59;;;;;;;18.10;13.50;;;;;;;1.66;85.27;96609.77;107991;1272;71038;-68
2021/12/08 09:24:59;;;;;;;17.90;12.40;;;;;;;1.72;84.81;96609.86;108096;1272;68622;-70
2021/12/08 09:27:37;;;;;;;18.40;13.80;;;;;;;1.73;84.49;96610.29;107920;1272;70126;-68
2021/12/08 09:30:24;;;;;;;14.80;10.50;;;;;;;1.74;84.28;96607.88;107964;1274;59688;-72
2021/12/08 09:33:01;;;;;;;14.40;10.10;;;;;;;1.80;84.71;96603.44;107979;1273;59728;-72
2021/12/08 09:35:55;;;;;;;14.80;9.70;;;;;;;1.88;85.28;96603.36;107970;1274;71617;-74
2021/12/08 09:38:30;;;;;;;13.10;9.30;;;;;;;1.96;84.72;96597.98;108064;1274;68375;-74
2021/12/08 09:41:16;;;;;;;15.70;11.30;;;;;;;2.03;84.74;96595.04;108117;1272;70004;-76
2021/12/08 09:43:52;;;;;;;14.80;10.40;;;;;;;2.10;84.95;96589.20;108102;1272;59710;-72
2021/12/08 09:46:30;;;;;;;17.80;12.70;;;;;;;2.16;84.50;96591.80;108045;1272;59840;-74
2021/12/08 09:49:03;;;;;;;15.00;11.40;;;;;;;2.20;83.97;96590.02;108079;1272;71581;-76
2021/12/08 09:51:35;;;;;;;12.70;9.90;;;;;;;2.23;83.14;96586.24;108110;1273;67869;-72
2021/12/08 09:54:04;;;;;;;13.70;9.40;;;;;;;2.26;83.01;96588.83;108086;1272;69580;-71
2021/12/08 09:56:34;;;;;;;15.20;10.70;;;;;;;2.27;82.05;96588.79;108100;1272;60171;-68
2021/12/08 09:59:05;;;;;;;13.80;9.90;;;;;;;2.28;82.68;96591.46;108040;1271;59777;-68
2021/12/08 10:01:38;;;;;;;14.90;10.20;;;;;;;2.32;82.99;96590.45;108081;1271;70901;-70
2021/12/08 10:04:10;;;;;;;19.20;13.50;;;;;;;2.33;82.40;96589.01;108154;1272;68630;-74
2021/12/08 10:06:41;;;;;;;19.00;13.10;;;;;;;2.24;82.09;96592.23;108006;1272;70041;-74
2021/12/08 10:09:11;;;;;;;15.20;12.40;;;;;;;2.21;82.34;96588.95;108125;1266;59672;-71
2021/12/08 10:11:40;;;;;;;13.40;9.50;;;;;;;2.21;82.31;96588.45;108071;1272;59736;-72
2021/12/08 10:14:09;;;;;;;15.50;10.50;;;;;;;2.22;82.55;96584.40;108133;1271;71043;-75
2021/12/08 10:16:38;;;;;;;15.50;10.80;;;;;;;2.23;82.00;96584.88;108105;1271;69438;-75
2021/12/08 10:19:07;;;;;;;14.30;10.40;;;;;;;2.24;82.82;96587.91;108122;1272;69431;-69
2021/12/08 10:21:41;;;;;;;15.70;10.10;;;;;;;2.27;82.96;96588.81;108130;1270;59752;-72
2021/12/08 10:24:13;;;;;;;16.80;12.70;;;;;;;2.28;82.97;96585.81;108154;1272;59747;-72
2021/12/08 10:26:43;;;;;;;15.60;11.30;;;;;;;2.26;82.29;96588.99;108124;1271;72246;-73
2021/12/08 10:29:12;;;;;;;16.40;11.00;;;;;;;2.27;82.59;96590.87;108037;1271;68600;-73
2021/12/08 10:31:48;;;;;;;15.50;11.00;;;;;;;2.29;83.06;96593.68;108071;1266;67668;-68
2021/12/08 10:36:59;;;;;;;12.30;9.00;;;;;;;2.32;82.84;96592.32;108109;1272;59741;-71
2021/12/08 10:39:35;;;;;;;16.00;11.30;;;;;;;2.33;82.46;96595.17;108000;1274;71650;-67
2021/12/08 10:42:25;;;;;;;15.40;11.10;;;;;;;2.30;82.03;96597.27;108135;1272;68575;-68
2021/12/08 10:45:16;;;;;;;18.30;13.30;;;;;;;2.27;82.43;96598.93;108007;1272;69558;-73
2021/12/08 10:47:49;;;;;;;;;;;;;;;2.23;82.13;96598.10;108005;1272;59790;-69
2021/12/08 10:56:24;;;;;;;14.30;9.80;;;;;;;2.26;83.01;96608.27;108106;1272;67755;-68
2021/12/08 10:58:58;;;;;;;14.70;9.90;;;;;;;2.27;83.26;96608.05;108083;1271;68495;-70
2021/12/08 11:01:28;;;;;;;13.50;10.00;;;;;;;2.26;83.08;96612.74;107850;1274;59738;-74
2021/12/08 11:04:08;;;;;;;16.80;11.60;;;;;;;2.27;83.19;96612.17;108000;1272;59780;-74
2021/12/08 11:06:39;;;;;;;15.80;10.90;;;;;;;2.26;83.28;96617.35;107865;1274;71577;-67
2021/12/08 11:09:15;;;;;;;17.40;11.40;;;;;;;2.24;83.02;96621.27;108132;1272;68647;-73
2021/12/08 11:11:47;;;;;;;22.20;14.70;;;;;;;2.18;83.16;96619.33;108154;1272;68931;-73
2021/12/08 11:14:16;;;;;;;17.90;12.90;;;;;;;2.10;83.01;96622.19;108053;1272;59745;-70
2021/12/08 11:16:45;;;;;;;23.00;15.10;;;;;;;2.08;83.55;96624.20;108166;1272;59719;-72
2021/12/08 11:19:21;;;;;;;23.50;15.50;;;;;;;2.05;84.16;96624.88;108090;1272;70803;-68
2021/12/08 11:21:55;;;;;;;15.50;10.20;;;;;;;2.03;83.98;96623.89;108046;1271;69301;-71
2021/12/08 11:24:34;;;;;;;13.40;9.40;;;;;;;2.05;83.99;96623.11;107954;1272;70002;-73
2021/12/08 11:27:08;;;;;;;15.00;10.30;;;;;;;2.08;84.22;96619.55;108168;1272;59798;-69
2021/12/08 11:29:42;;;;;;;17.00;11.30;;;;;;;2.09;84.21;96622.44;108080;1274;59718;-71
2021/12/08 11:32:15;;;;;;;18.90;11.30;;;;;;;2.11;84.12;96621.45;108192;1272;70607;-75
2021/12/08 11:34:48;;;;;;;17.50;12.00;;;;;;;2.09;83.87;96626.04;108100;1272;68157;-68
2021/12/08 11:37:22;;;;;;;13.40;9.30;;;;;;;2.09;84.10;96623.96;108092;1272;69330;-70
2021/12/08 11:40:01;;;;;;;14.90;10.30;;;;;;;2.11;84.22;96623.35;108171;1272;59850;-71
2021/12/08 11:42:36;;;;;;;20.00;12.90;;;;;;;2.13;84.24;96620.98;108166;1272;59726;-67
2021/12/08 11:45:16;;;;;;;17.30;11.50;;;;;;;2.12;83.62;96617.45;108153;1272;70794;-69
2021/12/08 11:47:46;;;;;;;16.80;11.30;;;;;;;2.14;83.94;96618.02;108050;1270;67616;-71
2021/12/08 11:50:21;;;;;;;14.20;10.20;;;;;;;2.16;83.91;96619.98;107995;1272;69451;-69
2021/12/08 11:52:53;;;;;;;16.30;11.10;;;;;;;2.18;84.10;96623.16;108169;1270;59773;-68
2021/12/08 11:55:25;;;;;;;14.10;10.70;;;;;;;2.19;84.15;96625.31;108225;1271;59712;-72
2021/12/08 11:57:57;;;;;;;18.00;11.90;;;;;;;2.20;83.85;96624.05;108030;1272;71568;-71
2021/12/08 12:00:34;;;;;;;18.60;12.80;;;;;;;2.19;83.92;96619.11;108128;1272;68603;-75
2021/12/08 12:03:09;;;;;;;16.60;12.70;;;;;;;2.20;83.99;96618.39;108145;1272;68485;-72
2021/12/08 12:05:43;;;;;;;26.00;17.10;;;;;;;2.22;83.86;96616.23;108204;1272;59774;-71
2021/12/08 12:08:19;;;;;;;21.80;12.90;;;;;;;2.17;83.67;96612.20;108192;1272;59761;-68
2021/12/08 12:10:51;;;;;;;23.90;16.60;;;;;;;2.18;83.53;96611.79;108192;1272;71293;-68
2021/12/08 12:13:21;;;;;;;14.60;10.70;;;;;;;2.14;83.06;96615.27;108005;1272;68894;-68
2021/12/08 12:15:52;;;;;;;15.50;12.00;;;;;;;2.16;83.39;96616.21;107932;1272;68432;-69
2021/12/08 12:18:30;;;;;;;20.60;15.70;;;;;;;2.19;83.60;96612.92;108051;1271;59773;-70
2021/12/08 12:21:33;;;;;;;16.40;11.90;;;;;;;2.15;83.58;96613.32;108213;1272;59629;-69
2021/12/08 12:24:28;;;;;;;14.20;10.10;;;;;;;2.21;83.83;96612.52;108219;1270;70934;-71
2021/12/08 12:27:17;;;;;;;15.30;11.60;;;;;;;2.25;83.74;96611.77;108218;1272;69215;-68
2021/12/08 12:30:30;;;;;;;17.50;11.80;;;;;;;2.28;83.64;96612.11;108168;1272;69927;-68
2021/12/08 12:33:00;;;;;;;16.60;12.00;;;;;;;2.32;83.58;96615.04;108061;1274;59733;-68
2021/12/08 12:35:33;;;;;;;14.10;10.60;;;;;;;2.34;83.35;96617.85;107900;1272;59682;-68
2021/12/08 12:38:11;;;;;;;16.00;10.60;;;;;;;2.37;83.72;96621.45;108106;1272;71597;-72